Flight Track Log - Related Links

Times and Time Zones

All times are in EDT time to prevent confusion due to time zone crossing. See the EJA727 flight status page for this flight to view local times or setup timezone preferences in your user account.

Time Position Orientation Groundspeed Altitude Reporting Facility
EDT Latitude Longitude Course Direction KTS MPH feet Rate Location/Type
Thu 11:27:47 AM 40.2039 -111.7217 221° Southwest 201 231 5,300  Level Salt Lake Center
Thu 11:29:00 AM 40.1647 -111.7667 221° Southwest 271 312 8,900 2,267 Climbing Salt Lake Center
Thu 11:30:02 AM 40.1678 -111.8697 272° West 268 308 10,400 1,887 Climbing Salt Lake Center
Thu 11:31:04 AM 40.1014 -111.9286 214° Southwest 294 338 12,800 2,371 Climbing Salt Lake Center
Thu 11:32:06 AM 40.0100 -111.9953 209° Southwest 374 430 15,300 2,806 Climbing Salt Lake Center
Thu 11:33:08 AM 39.9022 -112.0508 202° Southwest 412 474 18,600 3,194 Climbing Salt Lake Center
Thu 11:34:10 AM 39.7931 -112.1053 201° Southwest 420 483 21,900 2,903 Climbing Salt Lake Center
Thu 11:35:12 AM 39.6811 -112.1619 201° Southwest 428 493 24,600 2,468 Climbing Salt Lake Center
Thu 11:36:14 AM 39.5417 -112.2308 201° Southwest 448 516 27,000 2,081 Climbing Salt Lake Center
Thu 11:37:16 AM 39.4181 -112.2714 194° South 460 529 28,900 1,694 Climbing Salt Lake Center
Thu 11:38:18 AM 39.2906 -112.3022 191° South 466 536 30,500 1,258 Climbing Salt Lake Center
Thu 11:39:20 AM 39.1658 -112.3339 191° South 468 539 31,500 1,210 Climbing Salt Lake Center
Thu 11:40:22 AM 39.0356 -112.3675 191° South 477 549 33,000 1,597 Climbing Salt Lake Center
Thu 11:41:24 AM 38.8883 -112.4381 200° South 475 547 34,800 1,355 Climbing Salt Lake Center
Thu 11:42:26 AM 38.7675 -112.5078 204° Southwest 477 549 35,800 1,500 Climbing Salt Lake Center
Thu 11:43:28 AM 38.6450 -112.5778 204° Southwest 482 555 37,900 1,065 Climbing Salt Lake Center
Thu 11:44:30 AM 38.5269 -112.6458 204° Southwest 470 541 38,000 48 Climbing Salt Lake Center
Thu 11:45:32 AM 38.4067 -112.7156 204° Southwest 475 547 38,000  Level Salt Lake Center
Thu 11:46:34 AM 38.2892 -112.7839 205° Southwest 468 539 38,000  Level Salt Lake Center
Thu 11:47:36 AM 38.1467 -112.8653 204° Southwest 470 541 38,000  Level Salt Lake Center
Thu 11:48:38 AM 38.0281 -112.9333 204° Southwest 471 542 38,000  Level Salt Lake Center
Thu 11:49:41 AM 37.9089 -112.9997 204° Southwest 472 543 38,000  Level Salt Lake Center
Thu 11:50:43 AM 37.7914 -113.0683 205° Southwest 472 543 38,000  Level Salt Lake Center
Thu 11:51:45 AM 37.6711 -113.1889 218° Southwest 468 539 38,000  Level Salt Lake Center
Thu 11:52:47 AM 37.5714 -113.2903 219° Southwest 468 539 38,000  Level Salt Lake Center
Thu 11:53:49 AM 37.4717 -113.3919 219° Southwest 465 535 38,000  Level Salt Lake Center
Thu 11:54:51 AM 37.3714 -113.4953 219° Southwest 468 539 38,000  Level Salt Lake Center
Thu 11:55:44 AM 37.2694 -113.5947 218° Southwest 469 540 38,000  Level Los Angeles Center
Thu 11:56:55 AM 37.1472 -113.7167 219° Southwest 469 540 38,000  Level Salt Lake Center
Thu 11:57:57 AM 37.0464 -113.8192 219° Southwest 469 540 38,000  Level Salt Lake Center
Thu 11:58:50 AM 36.9583 -113.9067 218° Southwest 468 539 38,000  Level Los Angeles Center
Thu 11:59:52 AM 36.8581 -114.0075 219° Southwest 464 534 38,000  Level Los Angeles Center
Thu 12:00:54 PM 36.7444 -114.1211 219° Southwest 465 535 38,000  Level Los Angeles Center
Thu 12:01:57 PM 36.6447 -114.2208 219° Southwest 463 533 38,000  Level Los Angeles Center
Thu 12:02:59 PM 36.5556 -114.3100 219° Southwest 463 533 38,000  Level Los Angeles Center
Thu 12:04:01 PM 36.4364 -114.4300 219° Southwest 460 529 38,000  Level Los Angeles Center
Thu 12:05:03 PM 36.3356 -114.5297 219° Southwest 461 531 38,000 -435 Level Los Angeles Center
Thu 12:06:05 PM 36.2333 -114.6292 218° Southwest 463 533 37,100 -1,161 Descending Los Angeles Center
Thu 12:07:07 PM 36.1294 -114.7325 219° Southwest 472 543 35,600 -1,452 Descending Los Angeles Center
Thu 12:08:09 PM 36.0244 -114.8342 218° Southwest 475 547 34,100 -774 Descending Los Angeles Center
Thu 12:09:11 PM 35.9319 -114.9472 225° Southwest 467 537 34,000 -32 Descending Los Angeles Center
Thu 12:11:15 PM 35.7575 -115.1856 228° Southwest 465 535 34,000  Level Los Angeles Center
Thu 12:12:17 PM 35.6525 -115.3283 228° Southwest 465 535 34,000  Level Los Angeles Center
Thu 12:13:19 PM 35.5642 -115.4464 227° Southwest 465 535 34,000  Level Los Angeles Center
Thu 12:14:21 PM 35.4781 -115.5631 228° Southwest 460 529 34,000  Level Los Angeles Center
Thu 12:15:23 PM 35.3883 -115.6847 228° Southwest 460 529 34,000 -574 Level Los Angeles Center
Thu 12:16:37 PM 35.3006 -115.8006 227° Southwest 463 533 32,700 -1,412 Descending Los Angeles Center
Thu 12:17:39 PM 35.1933 -115.9417 227° Southwest 472 543 30,800 -1,694 Descending Los Angeles Center
Thu 12:18:41 PM 35.1044 -116.0600 227° Southwest 473 544 29,200 -1,548 Descending Los Angeles Center
Thu 12:19:43 PM 35.0153 -116.1772 227° Southwest 471 542 27,600 -1,694 Descending Los Angeles Center
Thu 12:20:45 PM 34.9100 -116.3142 227° Southwest 462 532 25,700 -1,680 Descending Los Angeles Center
Thu 12:21:48 PM 34.8239 -116.4258 227° Southwest 453 521 24,100 -1,296 Descending Los Angeles Center
Thu 12:22:50 PM 34.7872 -116.5672 253° West 445 512 23,000 -971 Descending Los Angeles Center
Thu 12:24:04 PM 34.7722 -116.7100 263° West 429 494 21,900 -1,015 Descending Los Angeles Center
Thu 12:25:06 PM 34.7550 -116.8817 263° West 426 490 20,700 -964 Descending Los Angeles Center
Thu 12:26:21 PM 34.7403 -117.0233 263° West 423 487 19,700 -882 Descending Los Angeles Center
Thu 12:27:22 PM 34.7261 -117.1636 263° West 419 482 18,700 -1,015 Descending Los Angeles Center
Thu 12:28:37 PM 34.7056 -117.3592 263° West 414 476 17,400 -1,095 Descending Los Angeles Center
Thu 12:29:39 PM 34.6892 -117.5211 263° West 401 461 16,200 -1,065 Descending Los Angeles Center
Thu 12:30:41 PM 34.6778 -117.6328 263° West 343 395 15,200 -1,008 Descending Los Angeles Center
Thu 12:31:44 PM 34.6656 -117.7397 262° West 323 372 14,100 -1,008 Descending Los Angeles Center
Thu 12:32:46 PM 34.6544 -117.8497 263° West 327 376 13,100 -968 Descending Los Angeles Center
Thu 12:33:48 PM 34.6433 -117.9547 263° West 316 364 12,100 -1,065 Descending Los Angeles Center
Thu 12:34:50 PM 34.6294 -118.0753 262° West 302 348 10,900 -1,065 Descending Los Angeles Center
Thu 12:35:52 PM 34.6083 -118.1767 256° West 308 354 9,900 -968 Descending Los Angeles Center
Thu 12:36:54 PM 34.5856 -118.2711 254° West 298 343 8,900 -919 Descending Los Angeles Center
Thu 12:37:56 PM 34.5639 -118.3669 255° West 299 344 8,000 -435 Descending Los Angeles Center
Thu 12:38:58 PM 34.5194 -118.4442 235° Southwest 284 327 8,000 -768 Level Los Angeles Center
Thu 12:40:01 PM 34.4514 -118.5239 224° Southwest 287 330 6,400 -1,344 Descending Los Angeles Center
Thu 12:41:03 PM 34.3767 -118.5242 180° South 267 307 5,200 -1,097 Descending Los Angeles Center
Thu 12:41:34 PM 34.3333 -118.5167 172° South 238 274 4,700 -1,423 Descending Southern California TRACON
Thu 12:42:40 PM 34.2833 -118.5000 165° South 198 228 2,900 -1,600 Descending Southern California TRACON
Thu 12:43:34 PM 34.2333 -118.5000 180° South 146 168 1,500 -1,556 Descending Southern California TRACON
Thu 12:46:00 PM 34.2098 -118.4900 180° South  Level Estimated
Thu 12:53:00 PM 34.2098 -118.4900 180° South  Level Estimated

Login

Don't have an account? Register now (free) for customized features, flight alerts, and more!